createdAt,value
2018-07-11T00:01:14.090Z,5.43
2018-07-11T00:03:46.991Z,7.30
2018-07-11T00:06:15.746Z,2.97
2018-07-11T00:08:43.221Z,5.57
2018-07-11T00:11:11.439Z,2.97
2018-07-11T00:13:39.417Z,2.90
2018-07-11T00:16:06.912Z,3.20
2018-07-11T00:18:34.716Z,3.37
2018-07-11T00:21:02.616Z,3.13
2018-07-11T00:23:30.078Z,3.33
2018-07-11T00:25:57.479Z,5.83
2018-07-11T00:28:24.960Z,3.20
2018-07-11T00:30:52.424Z,2.90
2018-07-11T00:33:19.940Z,4.27
2018-07-11T00:35:47.850Z,4.10
2018-07-11T00:38:15.328Z,3.47
2018-07-11T00:40:42.819Z,3.10
2018-07-11T00:43:10.313Z,2.90
2018-07-11T00:45:38.028Z,3.73
2018-07-11T00:48:05.921Z,2.90
2018-07-11T00:50:33.433Z,3.13
2018-07-11T00:53:00.920Z,3.23
2018-07-11T00:55:28.404Z,3.07
2018-07-11T00:57:57.359Z,5.23
2018-07-11T01:00:24.823Z,2.93
2018-07-11T01:02:52.316Z,3.13
2018-07-11T01:05:19.835Z,2.97
2018-07-11T01:07:47.377Z,4.17
2018-07-11T01:10:14.897Z,3.07
2018-07-11T01:12:42.379Z,3.00
2018-07-11T01:15:09.868Z,3.20
2018-07-11T01:17:42.824Z,2.97
2018-07-11T01:20:10.352Z,3.97
2018-07-11T01:22:37.777Z,4.23
2018-07-11T01:25:05.304Z,3.73
2018-07-11T01:27:32.752Z,2.70
2018-07-11T01:30:00.197Z,5.03
2018-07-11T01:32:27.672Z,3.03
2018-07-11T01:34:55.113Z,4.43
2018-07-11T01:37:22.613Z,3.10
2018-07-11T01:39:50.112Z,7.20
2018-07-11T01:42:17.599Z,3.07
2018-07-11T01:44:45.192Z,2.83
2018-07-11T01:47:12.714Z,5.10
2018-07-11T01:49:40.242Z,3.27
2018-07-11T01:52:13.064Z,3.17
2018-07-11T01:54:40.553Z,3.17
2018-07-11T01:57:08.046Z,4.70
2018-07-11T01:59:37.085Z,5.37
2018-07-11T02:02:05.189Z,3.90
2018-07-11T02:04:34.104Z,3.17
2018-07-11T02:07:01.606Z,3.10
2018-07-11T02:09:29.496Z,4.27
2018-07-11T02:11:57.003Z,4.27
2018-07-11T02:14:24.500Z,3.37
2018-07-11T02:16:52.064Z,3.30
2018-07-11T02:19:19.865Z,3.90
2018-07-11T02:21:47.412Z,3.30
2018-07-11T02:24:14.939Z,3.53
2018-07-11T02:26:42.704Z,3.10
2018-07-11T02:29:10.241Z,3.00
2018-07-11T02:31:37.717Z,4.67
2018-07-11T02:34:05.236Z,3.00
2018-07-11T02:36:32.677Z,3.23
2018-07-11T02:39:00.149Z,2.70
2018-07-11T02:41:27.618Z,3.63
2018-07-11T02:43:55.113Z,4.83
2018-07-11T02:46:27.817Z,3.00
2018-07-11T02:48:55.317Z,5.87
2018-07-11T02:51:22.810Z,5.33
2018-07-11T02:53:50.279Z,3.20
2018-07-11T02:56:17.793Z,4.13
2018-07-11T02:58:45.265Z,4.90
2018-07-11T03:01:12.798Z,3.93
2018-07-11T03:03:40.293Z,3.40
2018-07-11T03:06:07.776Z,3.60
2018-07-11T03:08:35.821Z,3.63
2018-07-11T03:11:03.903Z,3.73
2018-07-11T03:13:31.386Z,5.60
2018-07-11T03:15:58.879Z,3.87
2018-07-11T03:18:26.330Z,5.63
2018-07-11T03:20:53.792Z,3.77
2018-07-11T03:23:21.321Z,3.10
2018-07-11T03:25:48.759Z,4.27
2018-07-11T03:28:16.263Z,4.70
2018-07-11T03:30:44.297Z,4.10
2018-07-11T03:33:11.753Z,3.90
2018-07-11T03:35:39.180Z,3.80
2018-07-11T03:38:06.737Z,3.50
2018-07-11T03:40:34.205Z,5.00
2018-07-11T03:43:01.673Z,3.67
2018-07-11T03:45:29.252Z,4.03
2018-07-11T03:47:56.705Z,4.60
2018-07-11T03:50:24.153Z,3.57
2018-07-11T03:52:51.673Z,5.23
2018-07-11T03:55:19.150Z,6.27
2018-07-11T03:57:46.612Z,4.03
2018-07-11T04:00:14.127Z,3.37
2018-07-11T04:02:41.599Z,3.93
2018-07-11T04:05:09.026Z,4.00
2018-07-11T04:07:36.486Z,4.00
2018-07-11T04:10:03.986Z,3.80
2018-07-11T04:12:31.417Z,4.30
2018-07-11T04:14:58.963Z,3.73
2018-07-11T04:17:26.415Z,3.83
2018-07-11T04:19:54.077Z,4.00
2018-07-11T04:22:21.545Z,3.67
2018-07-11T04:24:49.038Z,4.53
2018-07-11T04:27:16.473Z,3.80
2018-07-11T04:29:44.022Z,6.07
2018-07-11T04:32:11.497Z,3.70
2018-07-11T04:34:38.971Z,4.43
2018-07-11T04:37:06.520Z,3.77
2018-07-11T04:39:34.044Z,3.93
2018-07-11T04:42:01.599Z,4.53
2018-07-11T04:44:29.134Z,4.50
2018-07-11T04:46:56.636Z,4.43
2018-07-11T04:49:24.120Z,4.10
2018-07-11T04:51:51.654Z,3.97
2018-07-11T04:54:19.455Z,3.93
2018-07-11T04:56:46.965Z,5.73
2018-07-11T04:59:14.437Z,4.77
2018-07-11T05:01:41.877Z,3.60
2018-07-11T05:04:09.334Z,5.07
2018-07-11T05:06:36.824Z,3.73
2018-07-11T05:09:04.755Z,3.53
2018-07-11T05:11:32.278Z,4.13
2018-07-11T05:13:59.718Z,3.90
2018-07-11T05:16:27.157Z,4.37
2018-07-11T05:18:54.624Z,4.40
2018-07-11T05:21:22.057Z,4.33
2018-07-11T05:23:49.500Z,4.00
2018-07-11T05:26:16.976Z,4.23
2018-07-11T05:28:44.425Z,3.50
2018-07-11T05:31:11.888Z,3.27
2018-07-11T05:33:39.357Z,3.73
2018-07-11T05:36:06.789Z,3.37
2018-07-11T05:38:34.237Z,5.93
2018-07-11T05:41:01.713Z,3.57
2018-07-11T05:43:29.152Z,3.47
2018-07-11T05:45:56.641Z,3.20
2018-07-11T05:48:24.389Z,3.20
2018-07-11T05:50:51.863Z,3.00
2018-07-11T05:53:19.347Z,4.13
2018-07-11T05:55:46.871Z,3.37
2018-07-11T05:58:14.328Z,3.87
2018-07-11T06:00:41.827Z,2.83
2018-07-11T06:03:09.345Z,2.90
2018-07-11T06:05:36.790Z,6.40
2018-07-11T06:08:04.406Z,2.90
2018-07-11T06:10:32.100Z,6.37
2018-07-11T06:12:59.549Z,6.80
2018-07-11T06:15:27.000Z,3.37
2018-07-11T06:17:54.493Z,2.83
2018-07-11T06:20:21.936Z,3.37
2018-07-11T06:22:49.387Z,7.37
2018-07-11T06:25:16.903Z,2.90
2018-07-11T06:27:44.374Z,2.70
2018-07-11T06:30:12.017Z,3.07
2018-07-11T06:32:39.477Z,3.40
2018-07-11T06:35:06.933Z,2.90
2018-07-11T06:37:34.469Z,5.53
2018-07-11T06:40:01.969Z,3.17
2018-07-11T06:42:29.450Z,4.20
2018-07-11T06:44:57.106Z,2.97
2018-07-11T06:47:28.737Z,3.43
2018-07-11T06:49:56.364Z,3.40
2018-07-11T06:52:23.904Z,3.30
2018-07-11T06:54:51.352Z,3.40
2018-07-11T06:57:19.537Z,3.63
2018-07-11T06:59:47.009Z,3.53
2018-07-11T07:02:14.488Z,3.50
2018-07-11T07:04:41.924Z,6.03
2018-07-11T07:07:09.423Z,3.50
2018-07-11T07:09:36.941Z,3.30
2018-07-11T07:12:04.407Z,3.37
2018-07-11T07:14:31.838Z,3.60
2018-07-11T07:16:59.284Z,3.83
2018-07-11T07:19:26.741Z,3.47
2018-07-11T07:21:54.363Z,3.60
2018-07-11T07:24:21.829Z,3.70
2018-07-11T07:26:49.304Z,3.73
2018-07-11T07:29:16.788Z,4.13
2018-07-11T07:31:44.281Z,4.87
2018-07-11T07:34:11.766Z,4.20
2018-07-11T07:36:39.254Z,4.80
2018-07-11T07:39:06.709Z,4.00
2018-07-11T07:41:34.156Z,3.57
2018-07-11T07:44:01.885Z,3.90
2018-07-11T07:46:29.450Z,3.70
2018-07-11T07:48:57.049Z,3.70
2018-07-11T07:51:24.579Z,3.23
2018-07-11T07:53:52.149Z,3.50
2018-07-11T07:56:19.653Z,3.20
2018-07-11T07:58:47.129Z,3.27
2018-07-11T08:01:14.666Z,3.10
2018-07-11T08:03:42.145Z,3.43
2018-07-11T08:06:09.593Z,4.60
2018-07-11T08:08:37.072Z,3.90
2018-07-11T08:11:04.519Z,3.70
2018-07-11T08:13:31.961Z,3.30
2018-07-11T08:15:59.769Z,5.40
2018-07-11T08:18:27.237Z,3.23
2018-07-11T08:20:54.684Z,7.90
2018-07-11T08:23:32.577Z,3.30
2018-07-11T08:26:06.391Z,4.13
2018-07-11T08:30:43.958Z,4.23
2018-07-11T08:33:24.865Z,5.53
2018-07-11T08:35:57.868Z,3.73
2018-07-11T08:38:34.872Z,3.50
2018-07-11T08:41:25.647Z,7.00
2018-07-11T08:43:57.431Z,3.70
2018-07-11T08:46:30.418Z,4.60
2018-07-11T08:50:06.397Z,3.50
2018-07-11T08:52:39.273Z,3.73
2018-07-11T08:55:13.438Z,4.27
2018-07-11T08:57:45.336Z,3.53
2018-07-11T09:00:25.203Z,3.60
2018-07-11T09:03:12.139Z,4.90
2018-07-11T09:07:47.664Z,3.87
2018-07-11T09:10:21.577Z,4.23
2018-07-11T09:13:09.455Z,4.13
2018-07-11T09:17:47.054Z,6.10
2018-07-11T09:22:24.427Z,6.30
2018-07-11T09:24:51.862Z,3.83
2018-07-11T09:27:19.411Z,4.20
2018-07-11T09:29:47.367Z,3.97
2018-07-11T09:32:15.309Z,3.90
2018-07-11T09:34:43.385Z,4.30
2018-07-11T09:37:11.063Z,5.10
2018-07-11T09:39:38.528Z,6.12
2018-07-11T09:42:06.152Z,4.13
2018-07-11T09:44:33.791Z,4.07
2018-07-11T09:47:05.509Z,5.93
2018-07-11T09:49:33.139Z,3.10
2018-07-11T09:52:00.560Z,4.03
2018-07-11T09:54:28.090Z,3.10
2018-07-11T09:56:55.564Z,3.13
2018-07-11T09:59:23.060Z,6.43
2018-07-11T10:01:50.588Z,3.45
2018-07-11T10:04:18.121Z,5.17
2018-07-11T10:06:45.577Z,3.90
2018-07-11T10:09:13.064Z,4.47
2018-07-11T10:11:40.474Z,5.00
2018-07-11T10:14:07.952Z,2.63
2018-07-11T10:16:35.412Z,2.80
2018-07-11T10:19:03.899Z,3.17
2018-07-11T10:21:32.200Z,3.67
2018-07-11T10:23:59.887Z,4.33
2018-07-11T10:26:27.583Z,2.57
2018-07-11T10:28:55.456Z,3.13
2018-07-11T10:31:23.383Z,3.00
2018-07-11T10:33:50.810Z,3.10
2018-07-11T10:36:18.353Z,3.00
2018-07-11T10:38:45.849Z,2.87
2018-07-11T10:41:13.339Z,3.10
2018-07-11T10:43:41.301Z,2.63
2018-07-11T10:46:08.856Z,4.93
2018-07-11T10:48:36.725Z,2.87
2018-07-11T10:51:04.312Z,2.60
2018-07-11T10:53:32.475Z,2.80
2018-07-11T10:55:59.900Z,3.00
2018-07-11T10:58:27.409Z,2.80
2018-07-11T11:01:05.696Z,2.80
2018-07-11T11:03:29.391Z,2.87
2018-07-11T11:05:56.827Z,2.72
2018-07-11T11:08:24.641Z,2.77
2018-07-11T11:10:52.403Z,2.25
2018-07-11T11:13:20.427Z,3.10
2018-07-11T11:15:48.006Z,2.45
2018-07-11T11:18:15.452Z,2.90
2018-07-11T11:20:42.923Z,2.50
2018-07-11T11:23:10.382Z,2.85
2018-07-11T11:25:37.971Z,3.17
2018-07-11T11:28:05.669Z,2.70
2018-07-11T11:30:33.148Z,2.85
2018-07-11T11:33:00.573Z,2.62
2018-07-11T11:35:28.016Z,2.60
2018-07-11T11:37:55.427Z,2.75
2018-07-11T11:40:22.892Z,3.10
2018-07-11T11:42:50.409Z,2.77
2018-07-11T11:45:17.848Z,3.25
2018-07-11T11:47:45.265Z,3.27
2018-07-11T11:50:12.712Z,2.75
2018-07-11T11:52:40.113Z,2.80
2018-07-11T11:55:07.571Z,3.20
2018-07-11T11:57:35.074Z,6.15
2018-07-11T12:00:02.491Z,3.05
2018-07-11T12:02:29.903Z,3.22
2018-07-11T12:04:57.525Z,3.62
2018-07-11T12:07:24.951Z,3.25
2018-07-11T12:09:52.417Z,3.27
2018-07-11T12:12:19.951Z,4.12
2018-07-11T12:14:47.652Z,3.35
2018-07-11T12:17:15.116Z,3.20
2018-07-11T12:19:44.175Z,3.47
2018-07-11T12:22:12.991Z,3.70
2018-07-11T12:24:40.451Z,4.60
2018-07-11T12:27:07.959Z,3.67
2018-07-11T12:29:35.935Z,3.83
2018-07-11T12:32:03.340Z,3.33
2018-07-11T12:34:30.815Z,4.77
2018-07-11T12:36:58.267Z,3.57
2018-07-11T12:39:25.686Z,3.10
2018-07-11T12:41:53.480Z,4.50
2018-07-11T12:44:20.949Z,3.30
2018-07-11T12:46:48.402Z,5.13
2018-07-11T12:49:15.863Z,3.80
2018-07-11T12:51:43.336Z,3.40
2018-07-11T12:54:10.804Z,3.73
2018-07-11T12:56:38.287Z,4.07
2018-07-11T12:59:05.749Z,3.43
2018-07-11T13:01:33.231Z,3.50
2018-07-11T13:04:01.113Z,5.50
2018-07-11T13:06:29.578Z,3.30
2018-07-11T13:08:57.128Z,3.73
2018-07-11T13:11:24.575Z,3.60
2018-07-11T13:13:52.480Z,3.90
2018-07-11T13:16:20.043Z,3.83
2018-07-11T13:18:47.512Z,4.03
2018-07-11T13:21:14.944Z,5.73
2018-07-11T13:23:42.431Z,3.57
2018-07-11T13:26:10.092Z,3.23
2018-07-11T13:28:37.590Z,4.10
2018-07-11T13:31:05.195Z,3.23
2018-07-11T13:33:32.701Z,3.10
2018-07-11T13:36:00.155Z,3.20
2018-07-11T13:38:27.560Z,3.30
2018-07-11T13:40:55.004Z,3.57
2018-07-11T13:43:22.462Z,3.40
2018-07-11T13:45:49.908Z,3.50
2018-07-11T13:48:17.329Z,3.20
2018-07-11T13:50:44.776Z,3.77
2018-07-11T13:53:12.247Z,3.13
2018-07-11T13:55:39.651Z,3.67
2018-07-11T13:58:07.116Z,2.80
2018-07-11T14:00:34.571Z,2.90
2018-07-11T14:03:02.587Z,3.07
2018-07-11T14:05:30.059Z,3.77
2018-07-11T14:07:57.504Z,3.30
2018-07-11T14:10:24.959Z,3.23
2018-07-11T14:12:52.427Z,3.20
2018-07-11T14:15:19.875Z,2.77
2018-07-11T14:17:47.508Z,2.50
2018-07-11T14:20:14.971Z,2.50
2018-07-11T14:22:42.402Z,2.80
2018-07-11T14:25:09.927Z,2.80
2018-07-11T14:27:39.937Z,2.70
2018-07-11T14:30:07.370Z,5.20
2018-07-11T14:32:35.015Z,2.50
2018-07-11T14:35:02.542Z,2.60
2018-07-11T14:37:30.045Z,3.70
2018-07-11T14:39:57.471Z,2.57
2018-07-11T14:42:24.979Z,2.83
2018-07-11T14:44:52.455Z,3.80
2018-07-11T14:47:25.374Z,3.60
2018-07-11T14:49:52.847Z,3.63
2018-07-11T14:52:20.451Z,2.80
2018-07-11T14:54:48.051Z,2.40
2018-07-11T14:57:15.504Z,3.27
2018-07-11T14:59:42.942Z,2.70
2018-07-11T15:02:10.404Z,2.97
2018-07-11T15:04:37.877Z,3.10
2018-07-11T15:07:05.456Z,2.87
2018-07-11T15:09:33.030Z,3.00
2018-07-11T15:12:00.419Z,2.83
2018-07-11T15:14:27.875Z,2.80
2018-07-11T15:16:55.383Z,3.23
2018-07-11T15:19:22.868Z,3.80
2018-07-11T15:21:50.388Z,3.07
2018-07-11T15:24:17.977Z,2.90
2018-07-11T15:26:45.395Z,2.80
2018-07-11T15:29:12.945Z,3.30
2018-07-11T15:31:40.436Z,3.03
2018-07-11T15:34:07.960Z,3.10
2018-07-11T15:36:35.705Z,2.93
2018-07-11T15:39:03.321Z,3.90
2018-07-11T15:41:30.808Z,4.53
2018-07-11T15:43:58.267Z,3.33
2018-07-11T15:46:25.781Z,3.60
2018-07-11T15:48:53.259Z,3.73
2018-07-11T15:51:20.696Z,4.03
2018-07-11T15:53:48.185Z,3.40
2018-07-11T15:56:15.651Z,3.53
2018-07-11T15:58:44.570Z,3.80
2018-07-11T16:01:11.816Z,3.47
2018-07-11T16:03:43.119Z,3.37
2018-07-11T16:06:10.532Z,3.83
2018-07-11T16:08:38.267Z,3.53
2018-07-11T16:11:05.808Z,3.27
2018-07-11T16:13:33.225Z,3.60
2018-07-11T16:16:00.800Z,3.17
2018-07-11T16:18:28.862Z,3.50
2018-07-11T16:20:56.300Z,3.37
2018-07-11T16:23:23.831Z,3.93
2018-07-11T16:25:51.286Z,4.97
2018-07-11T16:28:18.799Z,4.63
2018-07-11T16:30:46.228Z,3.70
2018-07-11T16:33:13.652Z,6.10
2018-07-11T16:35:41.062Z,3.30
2018-07-11T16:38:09.041Z,3.60
2018-07-11T16:40:36.471Z,3.83
2018-07-11T16:43:03.916Z,3.43
2018-07-11T16:45:31.458Z,3.67
2018-07-11T16:47:59.325Z,3.27
2018-07-11T16:50:26.749Z,4.07
2018-07-11T16:52:54.519Z,4.43
2018-07-11T16:55:22.240Z,3.80
2018-07-11T16:57:51.738Z,3.80
2018-07-11T17:00:23.959Z,3.20
2018-07-11T17:02:58.510Z,3.60
2018-07-11T17:05:26.004Z,3.63
2018-07-11T17:07:56.533Z,3.50
2018-07-11T17:10:24.028Z,3.77
2018-07-11T17:12:57.295Z,4.00
2018-07-11T17:15:27.263Z,3.80
2018-07-11T17:17:54.881Z,4.20
2018-07-11T17:20:23.351Z,4.10
2018-07-11T17:22:52.823Z,3.60
2018-07-11T17:25:20.576Z,4.50
2018-07-11T17:27:50.204Z,4.70
2018-07-11T17:30:18.536Z,4.10
2018-07-11T17:32:47.243Z,3.63
2018-07-11T17:35:14.692Z,3.87
2018-07-11T17:37:42.467Z,4.13
2018-07-11T17:40:11.235Z,4.40
2018-07-11T17:42:40.863Z,4.73
2018-07-11T17:45:12.896Z,3.93
2018-07-11T17:47:50.841Z,3.90
2018-07-11T17:50:18.311Z,3.90
2018-07-11T17:53:17.543Z,4.27
2018-07-11T17:55:50.489Z,3.67
2018-07-11T17:58:18.672Z,4.33
2018-07-11T18:00:54.761Z,3.87
2018-07-11T18:03:40.487Z,3.87
2018-07-11T18:06:41.624Z,4.70
2018-07-11T18:09:11.203Z,5.00
2018-07-11T18:11:42.056Z,4.10
2018-07-11T18:14:09.580Z,4.60
2018-07-11T18:16:44.601Z,4.67
2018-07-11T18:19:17.653Z,4.43
2018-07-11T18:21:57.706Z,4.57
2018-07-11T18:24:36.835Z,3.97
2018-07-11T18:27:07.546Z,4.30
2018-07-11T18:29:44.552Z,4.00
2018-07-11T18:32:31.416Z,4.67
2018-07-11T18:37:10.622Z,4.20
2018-07-11T18:39:42.787Z,4.17
2018-07-11T18:42:43.820Z,4.13
2018-07-11T18:45:15.252Z,7.50
2018-07-11T18:48:48.151Z,4.43
2018-07-11T18:51:19.968Z,4.07
2018-07-11T18:53:50.912Z,4.87
2018-07-11T18:56:38.911Z,5.37
2018-07-11T18:59:10.207Z,3.97
2018-07-11T19:01:42.095Z,3.77
2018-07-11T19:04:14.961Z,3.97
2018-07-11T19:06:45.228Z,3.97
2018-07-11T19:09:18.171Z,4.20
2018-07-11T19:11:48.048Z,4.50
2018-07-11T19:14:20.971Z,6.07
2018-07-11T19:16:51.851Z,4.27
2018-07-11T19:19:21.964Z,4.43
2018-07-11T19:21:55.644Z,4.53
2018-07-11T19:24:29.601Z,4.47
2018-07-11T19:27:02.655Z,4.17
2018-07-11T19:30:34.659Z,4.73
2018-07-11T19:33:09.131Z,4.57
2018-07-11T19:35:50.935Z,4.33
2018-07-11T19:38:41.027Z,4.17
2018-07-11T19:41:12.891Z,4.10
2018-07-11T19:44:47.259Z,6.80
2018-07-11T19:47:22.991Z,5.37
2018-07-11T19:49:53.595Z,5.67
2018-07-11T19:52:26.623Z,4.70
2018-07-11T19:55:01.111Z,5.90
2018-07-11T19:57:28.624Z,4.93
2018-07-11T19:59:56.044Z,5.17
2018-07-11T20:02:23.532Z,4.80
2018-07-11T20:04:51.130Z,4.90
2018-07-11T20:07:18.607Z,5.07
2018-07-11T20:09:46.083Z,4.70
2018-07-11T20:12:13.597Z,5.67
2018-07-11T20:14:41.052Z,5.00
2018-07-11T20:17:08.502Z,4.97
2018-07-11T20:19:35.903Z,6.30
2018-07-11T20:22:03.340Z,5.17
2018-07-11T20:24:31.073Z,5.03
2018-07-11T20:26:59.468Z,6.23
2018-07-11T20:29:27.156Z,4.97
2018-07-11T20:31:54.964Z,5.10
2018-07-11T20:34:22.431Z,5.37
2018-07-11T20:36:50.131Z,5.03
2018-07-11T20:39:17.823Z,5.20
2018-07-11T20:41:45.610Z,5.63
2018-07-11T20:44:13.339Z,4.70
2018-07-11T20:46:40.877Z,6.07
2018-07-11T20:49:13.639Z,5.50
2018-07-11T20:51:41.124Z,5.63
2018-07-11T20:54:08.531Z,5.33
2018-07-11T20:56:35.937Z,8.23
2018-07-11T20:59:08.927Z,6.73
2018-07-11T21:01:41.857Z,6.63
2018-07-11T21:04:14.883Z,5.13
2018-07-11T21:06:47.834Z,5.80
2018-07-11T21:09:20.871Z,4.57
2018-07-11T21:11:53.835Z,5.37
2018-07-11T21:16:32.322Z,8.33
2018-07-11T21:19:01.695Z,18.50
2018-07-11T21:21:29.598Z,20.33
2018-07-11T21:23:57.032Z,21.87
2018-07-11T21:26:24.465Z,12.37
2018-07-11T21:28:51.900Z,12.00
2018-07-11T21:31:19.411Z,9.73
2018-07-11T21:33:47.391Z,11.60
2018-07-11T21:36:14.980Z,14.53
2018-07-11T21:38:42.469Z,10.23
2018-07-11T21:41:09.955Z,7.37
2018-07-11T21:43:37.403Z,9.20
2018-07-11T21:46:04.891Z,6.47
2018-07-11T21:48:32.332Z,7.17
2018-07-11T21:51:00.268Z,7.53
2018-07-11T21:53:27.748Z,5.83
2018-07-11T21:55:55.135Z,6.50
2018-07-11T21:58:22.636Z,6.43
2018-07-11T22:00:50.069Z,5.87
2018-07-11T22:03:17.544Z,5.93
2018-07-11T22:05:45.344Z,5.93
2018-07-11T22:08:12.737Z,6.97
2018-07-11T22:10:40.483Z,6.50
2018-07-11T22:13:08.295Z,5.90
2018-07-11T22:15:36.113Z,5.93
2018-07-11T22:18:38.711Z,5.87
2018-07-11T22:21:06.533Z,5.83
2018-07-11T22:23:33.383Z,6.73
2018-07-11T22:26:00.493Z,6.07
2018-07-11T22:35:09.987Z,6.10
2018-07-11T22:37:36.791Z,7.80
2018-07-11T22:40:03.605Z,7.27
2018-07-11T22:42:30.473Z,7.03
2018-07-11T22:44:57.420Z,7.23
2018-07-11T22:47:24.256Z,7.07
2018-07-11T22:49:57.217Z,6.57
2018-07-11T22:52:24.031Z,8.13
2018-07-11T22:54:50.860Z,6.40
2018-07-11T22:57:17.724Z,6.23
2018-07-11T22:59:44.547Z,6.53
2018-07-11T23:02:11.360Z,5.50
2018-07-11T23:04:38.204Z,8.00
2018-07-11T23:07:05.066Z,6.57
2018-07-11T23:09:31.912Z,6.87
2018-07-11T23:11:58.755Z,6.73
2018-07-11T23:14:25.604Z,6.10
2018-07-11T23:16:52.457Z,6.60
2018-07-11T23:19:19.291Z,6.80
2018-07-11T23:21:46.104Z,6.30
2018-07-11T23:24:12.916Z,7.87
2018-07-11T23:26:39.755Z,7.33
2018-07-11T23:29:06.573Z,5.97
2018-07-11T23:31:33.577Z,6.20
2018-07-11T23:34:00.421Z,5.83
2018-07-11T23:36:27.258Z,5.67
2018-07-11T23:38:54.115Z,6.43
2018-07-11T23:41:20.953Z,7.13
2018-07-11T23:43:47.763Z,7.00
2018-07-11T23:46:14.623Z,8.17
2018-07-11T23:48:41.460Z,6.43
2018-07-11T23:51:08.271Z,8.93
2018-07-11T23:53:35.072Z,9.07
2018-07-11T23:56:01.913Z,6.60
2018-07-11T23:58:28.740Z,6.93
